sensor_id;sensor_type;location;lat;lon;timestamp;P1;durP1;ratioP1;P2;durP2;ratioP2
4222;SDS011;2125;51.436;14.138;2022-10-31T00:01:30;15.00;;;5.90;;
4222;SDS011;2125;51.436;14.138;2022-10-31T00:03:58;11.67;;;5.13;;
4222;SDS011;2125;51.436;14.138;2022-10-31T00:06:25;7.27;;;4.47;;
4222;SDS011;2125;51.436;14.138;2022-10-31T00:08:52;12.33;;;5.60;;
4222;SDS011;2125;51.436;14.138;2022-10-31T00:11:21;6.30;;;3.90;;
4222;SDS011;2125;51.436;14.138;2022-10-31T00:13:48;10.83;;;3.87;;
4222;SDS011;2125;51.436;14.138;2022-10-31T00:16:15;6.57;;;4.03;;
4222;SDS011;2125;51.436;14.138;2022-10-31T00:18:52;6.43;;;4.17;;
4222;SDS011;2125;51.436;14.138;2022-10-31T00:21:19;7.63;;;4.43;;
4222;SDS011;2125;51.436;14.138;2022-10-31T00:23:47;10.30;;;5.80;;
4222;SDS011;2125;51.436;14.138;2022-10-31T00:26:14;9.77;;;5.17;;
4222;SDS011;2125;51.436;14.138;2022-10-31T00:28:42;14.50;;;7.43;;
4222;SDS011;2125;51.436;14.138;2022-10-31T00:31:09;18.17;;;7.60;;
4222;SDS011;2125;51.436;14.138;2022-10-31T00:33:37;17.40;;;7.80;;
4222;SDS011;2125;51.436;14.138;2022-10-31T00:36:05;13.30;;;5.77;;
4222;SDS011;2125;51.436;14.138;2022-10-31T00:38:33;12.70;;;5.70;;
4222;SDS011;2125;51.436;14.138;2022-10-31T00:41:00;20.33;;;5.83;;
4222;SDS011;2125;51.436;14.138;2022-10-31T00:43:26;16.50;;;6.60;;
4222;SDS011;2125;51.436;14.138;2022-10-31T00:45:54;15.40;;;6.47;;
4222;SDS011;2125;51.436;14.138;2022-10-31T00:48:21;16.97;;;6.33;;
4222;SDS011;2125;51.436;14.138;2022-10-31T00:50:48;14.10;;;6.73;;
4222;SDS011;2125;51.436;14.138;2022-10-31T00:53:14;16.33;;;6.63;;
4222;SDS011;2125;51.436;14.138;2022-10-31T00:55:41;12.70;;;6.07;;
4222;SDS011;2125;51.436;14.138;2022-10-31T00:58:08;13.33;;;6.23;;
4222;SDS011;2125;51.436;14.138;2022-10-31T01:00:40;16.93;;;6.63;;
4222;SDS011;2125;51.436;14.138;2022-10-31T01:03:08;11.90;;;6.20;;
4222;SDS011;2125;51.436;14.138;2022-10-31T01:05:35;11.93;;;6.27;;
4222;SDS011;2125;51.436;14.138;2022-10-31T01:08:02;15.00;;;7.20;;
4222;SDS011;2125;51.436;14.138;2022-10-31T01:10:28;16.90;;;7.37;;
4222;SDS011;2125;51.436;14.138;2022-10-31T01:12:55;19.07;;;8.23;;
4222;SDS011;2125;51.436;14.138;2022-10-31T01:15:22;16.50;;;7.97;;
4222;SDS011;2125;51.436;14.138;2022-10-31T01:17:48;16.50;;;8.00;;
4222;SDS011;2125;51.436;14.138;2022-10-31T01:20:18;15.67;;;7.50;;
4222;SDS011;2125;51.436;14.138;2022-10-31T01:22:44;14.50;;;6.40;;
4222;SDS011;2125;51.436;14.138;2022-10-31T01:25:11;10.33;;;6.10;;
4222;SDS011;2125;51.436;14.138;2022-10-31T01:27:38;9.67;;;5.60;;
4222;SDS011;2125;51.436;14.138;2022-10-31T01:30:05;10.00;;;5.40;;
4222;SDS011;2125;51.436;14.138;2022-10-31T01:32:32;10.80;;;5.97;;
4222;SDS011;2125;51.436;14.138;2022-10-31T01:34:59;10.90;;;5.53;;
4222;SDS011;2125;51.436;14.138;2022-10-31T01:37:27;14.03;;;6.97;;
4222;SDS011;2125;51.436;14.138;2022-10-31T01:39:54;8.33;;;5.00;;
4222;SDS011;2125;51.436;14.138;2022-10-31T01:42:21;25.43;;;7.90;;
4222;SDS011;2125;51.436;14.138;2022-10-31T01:44:55;17.53;;;8.27;;
4222;SDS011;2125;51.436;14.138;2022-10-31T01:47:27;19.43;;;6.43;;
4222;SDS011;2125;51.436;14.138;2022-10-31T01:50:03;14.27;;;6.87;;
4222;SDS011;2125;51.436;14.138;2022-10-31T01:52:35;10.23;;;5.83;;
4222;SDS011;2125;51.436;14.138;2022-10-31T01:55:05;12.97;;;5.37;;
4222;SDS011;2125;51.436;14.138;2022-10-31T01:57:36;10.40;;;5.27;;
4222;SDS011;2125;51.436;14.138;2022-10-31T02:00:07;12.70;;;5.00;;
4222;SDS011;2125;51.436;14.138;2022-10-31T02:02:36;15.10;;;5.83;;
4222;SDS011;2125;51.436;14.138;2022-10-31T02:05:04;18.23;;;6.23;;
4222;SDS011;2125;51.436;14.138;2022-10-31T02:07:36;12.73;;;6.17;;
4222;SDS011;2125;51.436;14.138;2022-10-31T02:10:07;9.90;;;5.30;;
4222;SDS011;2125;51.436;14.138;2022-10-31T02:12:34;11.33;;;6.23;;
4222;SDS011;2125;51.436;14.138;2022-10-31T02:15:02;12.33;;;5.70;;
4222;SDS011;2125;51.436;14.138;2022-10-31T02:17:30;10.60;;;5.70;;
4222;SDS011;2125;51.436;14.138;2022-10-31T02:20:02;10.83;;;5.90;;
4222;SDS011;2125;51.436;14.138;2022-10-31T02:22:40;13.60;;;5.87;;
4222;SDS011;2125;51.436;14.138;2022-10-31T02:25:36;10.30;;;5.63;;
4222;SDS011;2125;51.436;14.138;2022-10-31T02:28:20;12.87;;;5.30;;
4222;SDS011;2125;51.436;14.138;2022-10-31T02:31:01;11.43;;;5.83;;
4222;SDS011;2125;51.436;14.138;2022-10-31T02:33:42;11.90;;;5.70;;
4222;SDS011;2125;51.436;14.138;2022-10-31T02:36:15;9.70;;;5.23;;
4222;SDS011;2125;51.436;14.138;2022-10-31T02:38:51;15.10;;;5.67;;
4222;SDS011;2125;51.436;14.138;2022-10-31T02:41:26;10.50;;;5.70;;
4222;SDS011;2125;51.436;14.138;2022-10-31T02:44:01;11.43;;;5.10;;
4222;SDS011;2125;51.436;14.138;2022-10-31T02:46:44;11.60;;;5.80;;
4222;SDS011;2125;51.436;14.138;2022-10-31T02:49:17;19.50;;;5.20;;
4222;SDS011;2125;51.436;14.138;2022-10-31T02:51:49;14.57;;;5.53;;
4222;SDS011;2125;51.436;14.138;2022-10-31T02:54:24;12.40;;;5.30;;
4222;SDS011;2125;51.436;14.138;2022-10-31T02:56:57;10.73;;;5.20;;
4222;SDS011;2125;51.436;14.138;2022-10-31T02:59:28;14.30;;;5.47;;
4222;SDS011;2125;51.436;14.138;2022-10-31T03:02:11;13.73;;;5.43;;
4222;SDS011;2125;51.436;14.138;2022-10-31T03:04:57;15.33;;;6.00;;
4222;SDS011;2125;51.436;14.138;2022-10-31T03:07:39;10.30;;;5.10;;
4222;SDS011;2125;51.436;14.138;2022-10-31T03:10:16;11.93;;;5.07;;
4222;SDS011;2125;51.436;14.138;2022-10-31T03:12:54;10.10;;;5.33;;
4222;SDS011;2125;51.436;14.138;2022-10-31T03:15:28;11.77;;;5.80;;
4222;SDS011;2125;51.436;14.138;2022-10-31T03:18:00;11.73;;;5.23;;
4222;SDS011;2125;51.436;14.138;2022-10-31T03:20:38;15.07;;;5.23;;
4222;SDS011;2125;51.436;14.138;2022-10-31T03:23:11;11.37;;;4.77;;
4222;SDS011;2125;51.436;14.138;2022-10-31T03:25:39;11.57;;;4.87;;
4222;SDS011;2125;51.436;14.138;2022-10-31T03:28:08;12.43;;;6.80;;
4222;SDS011;2125;51.436;14.138;2022-10-31T03:30:38;11.47;;;5.37;;
4222;SDS011;2125;51.436;14.138;2022-10-31T03:33:10;11.47;;;5.80;;
4222;SDS011;2125;51.436;14.138;2022-10-31T03:35:41;13.37;;;5.77;;
4222;SDS011;2125;51.436;14.138;2022-10-31T03:38:11;12.23;;;5.40;;
4222;SDS011;2125;51.436;14.138;2022-10-31T03:40:40;13.10;;;6.30;;
4222;SDS011;2125;51.436;14.138;2022-10-31T03:43:10;15.00;;;5.60;;
4222;SDS011;2125;51.436;14.138;2022-10-31T03:45:43;11.50;;;4.87;;
4222;SDS011;2125;51.436;14.138;2022-10-31T03:48:14;15.63;;;6.03;;
4222;SDS011;2125;51.436;14.138;2022-10-31T03:50:45;10.90;;;5.50;;
4222;SDS011;2125;51.436;14.138;2022-10-31T03:53:19;10.33;;;5.80;;
4222;SDS011;2125;51.436;14.138;2022-10-31T03:55:51;11.43;;;5.70;;
4222;SDS011;2125;51.436;14.138;2022-10-31T03:58:27;10.60;;;5.30;;
4222;SDS011;2125;51.436;14.138;2022-10-31T04:00:56;12.00;;;5.47;;
4222;SDS011;2125;51.436;14.138;2022-10-31T04:03:32;11.93;;;5.17;;
4222;SDS011;2125;51.436;14.138;2022-10-31T04:06:14;9.07;;;4.43;;
4222;SDS011;2125;51.436;14.138;2022-10-31T04:08:44;11.90;;;6.13;;
4222;SDS011;2125;51.436;14.138;2022-10-31T04:11:14;13.63;;;6.73;;
4222;SDS011;2125;51.436;14.138;2022-10-31T04:13:45;11.67;;;5.67;;
4222;SDS011;2125;51.436;14.138;2022-10-31T04:16:13;9.47;;;4.97;;
4222;SDS011;2125;51.436;14.138;2022-10-31T04:18:43;9.63;;;5.03;;
4222;SDS011;2125;51.436;14.138;2022-10-31T04:21:10;8.07;;;5.10;;
4222;SDS011;2125;51.436;14.138;2022-10-31T04:23:36;6.40;;;3.90;;
4222;SDS011;2125;51.436;14.138;2022-10-31T04:26:04;11.03;;;5.63;;
4222;SDS011;2125;51.436;14.138;2022-10-31T04:28:31;10.43;;;4.80;;
4222;SDS011;2125;51.436;14.138;2022-10-31T04:30:58;13.07;;;5.60;;
4222;SDS011;2125;51.436;14.138;2022-10-31T04:33:25;14.73;;;5.33;;
4222;SDS011;2125;51.436;14.138;2022-10-31T04:35:53;11.00;;;5.30;;
4222;SDS011;2125;51.436;14.138;2022-10-31T04:38:21;9.60;;;4.43;;
4222;SDS011;2125;51.436;14.138;2022-10-31T04:40:47;8.87;;;4.77;;
4222;SDS011;2125;51.436;14.138;2022-10-31T04:43:14;13.57;;;4.50;;
4222;SDS011;2125;51.436;14.138;2022-10-31T04:45:41;14.80;;;4.87;;
4222;SDS011;2125;51.436;14.138;2022-10-31T04:48:08;13.50;;;4.60;;
4222;SDS011;2125;51.436;14.138;2022-10-31T04:50:34;9.93;;;5.03;;
4222;SDS011;2125;51.436;14.138;2022-10-31T04:53:04;10.03;;;5.30;;
4222;SDS011;2125;51.436;14.138;2022-10-31T04:55:31;11.90;;;5.30;;
4222;SDS011;2125;51.436;14.138;2022-10-31T04:57:58;12.83;;;5.30;;
4222;SDS011;2125;51.436;14.138;2022-10-31T05:00:25;11.33;;;5.03;;
4222;SDS011;2125;51.436;14.138;2022-10-31T05:02:52;9.37;;;5.10;;
4222;SDS011;2125;51.436;14.138;2022-10-31T05:05:21;12.40;;;5.03;;
4222;SDS011;2125;51.436;14.138;2022-10-31T05:07:49;14.53;;;5.70;;
4222;SDS011;2125;51.436;14.138;2022-10-31T05:10:18;10.20;;;4.83;;
4222;SDS011;2125;51.436;14.138;2022-10-31T05:12:46;11.43;;;5.10;;
4222;SDS011;2125;51.436;14.138;2022-10-31T05:15:14;10.63;;;5.13;;
4222;SDS011;2125;51.436;14.138;2022-10-31T05:17:41;10.60;;;4.70;;
4222;SDS011;2125;51.436;14.138;2022-10-31T05:20:08;16.73;;;5.60;;
4222;SDS011;2125;51.436;14.138;2022-10-31T05:22:36;17.27;;;6.53;;
4222;SDS011;2125;51.436;14.138;2022-10-31T05:25:02;16.83;;;6.30;;
4222;SDS011;2125;51.436;14.138;2022-10-31T05:27:31;12.70;;;5.50;;
4222;SDS011;2125;51.436;14.138;2022-10-31T05:29:57;10.80;;;5.03;;
4222;SDS011;2125;51.436;14.138;2022-10-31T05:32:24;13.20;;;5.80;;
4222;SDS011;2125;51.436;14.138;2022-10-31T05:34:51;14.97;;;6.60;;
4222;SDS011;2125;51.436;14.138;2022-10-31T05:37:17;11.90;;;6.03;;
4222;SDS011;2125;51.436;14.138;2022-10-31T05:39:44;16.17;;;6.07;;
4222;SDS011;2125;51.436;14.138;2022-10-31T05:42:11;16.17;;;5.00;;
4222;SDS011;2125;51.436;14.138;2022-10-31T05:44:39;12.53;;;5.20;;
4222;SDS011;2125;51.436;14.138;2022-10-31T05:47:05;11.60;;;5.10;;
4222;SDS011;2125;51.436;14.138;2022-10-31T05:49:32;10.13;;;4.70;;
4222;SDS011;2125;51.436;14.138;2022-10-31T05:51:59;13.10;;;5.90;;
4222;SDS011;2125;51.436;14.138;2022-10-31T05:54:31;12.50;;;5.80;;
4222;SDS011;2125;51.436;14.138;2022-10-31T05:56:58;14.43;;;6.80;;
4222;SDS011;2125;51.436;14.138;2022-10-31T05:59:25;15.37;;;6.07;;
4222;SDS011;2125;51.436;14.138;2022-10-31T06:01:53;12.03;;;5.30;;
4222;SDS011;2125;51.436;14.138;2022-10-31T06:04:19;14.30;;;5.60;;
4222;SDS011;2125;51.436;14.138;2022-10-31T06:06:49;10.13;;;5.73;;
4222;SDS011;2125;51.436;14.138;2022-10-31T06:09:16;11.33;;;5.33;;
4222;SDS011;2125;51.436;14.138;2022-10-31T06:11:43;10.53;;;5.27;;
4222;SDS011;2125;51.436;14.138;2022-10-31T06:14:09;18.63;;;5.30;;
4222;SDS011;2125;51.436;14.138;2022-10-31T06:16:36;9.70;;;4.67;;
4222;SDS011;2125;51.436;14.138;2022-10-31T06:19:13;13.10;;;5.60;;
4222;SDS011;2125;51.436;14.138;2022-10-31T06:21:42;10.80;;;5.53;;
4222;SDS011;2125;51.436;14.138;2022-10-31T06:24:09;10.27;;;4.93;;
4222;SDS011;2125;51.436;14.138;2022-10-31T06:26:36;7.97;;;4.37;;
4222;SDS011;2125;51.436;14.138;2022-10-31T06:29:06;8.47;;;4.27;;
4222;SDS011;2125;51.436;14.138;2022-10-31T06:31:36;15.57;;;5.00;;
4222;SDS011;2125;51.436;14.138;2022-10-31T06:34:05;11.67;;;5.40;;
4222;SDS011;2125;51.436;14.138;2022-10-31T06:36:34;10.37;;;4.97;;
4222;SDS011;2125;51.436;14.138;2022-10-31T06:39:02;12.47;;;4.90;;
4222;SDS011;2125;51.436;14.138;2022-10-31T06:41:28;9.70;;;4.83;;
4222;SDS011;2125;51.436;14.138;2022-10-31T06:43:55;11.13;;;5.13;;
4222;SDS011;2125;51.436;14.138;2022-10-31T06:46:27;10.47;;;4.83;;
4222;SDS011;2125;51.436;14.138;2022-10-31T06:49:01;12.33;;;5.17;;
4222;SDS011;2125;51.436;14.138;2022-10-31T06:51:28;11.57;;;4.50;;
4222;SDS011;2125;51.436;14.138;2022-10-31T06:53:57;11.23;;;4.03;;
4222;SDS011;2125;51.436;14.138;2022-10-31T07:01:47;9.93;;;5.10;;
4222;SDS011;2125;51.436;14.138;2022-10-31T07:04:14;9.70;;;4.90;;
4222;SDS011;2125;51.436;14.138;2022-10-31T07:06:40;9.10;;;5.17;;
4222;SDS011;2125;51.436;14.138;2022-10-31T07:09:08;11.50;;;5.40;;
4222;SDS011;2125;51.436;14.138;2022-10-31T07:11:35;11.30;;;5.23;;
4222;SDS011;2125;51.436;14.138;2022-10-31T07:14:01;10.10;;;5.33;;
4222;SDS011;2125;51.436;14.138;2022-10-31T07:16:28;8.10;;;4.37;;
4222;SDS011;2125;51.436;14.138;2022-10-31T07:18:54;14.20;;;5.50;;
4222;SDS011;2125;51.436;14.138;2022-10-31T07:21:21;7.57;;;4.50;;
4222;SDS011;2125;51.436;14.138;2022-10-31T07:23:48;10.33;;;5.20;;
4222;SDS011;2125;51.436;14.138;2022-10-31T07:26:16;10.67;;;5.00;;
4222;SDS011;2125;51.436;14.138;2022-10-31T07:28:43;6.90;;;4.43;;
4222;SDS011;2125;51.436;14.138;2022-10-31T07:31:09;9.00;;;4.60;;
4222;SDS011;2125;51.436;14.138;2022-10-31T07:33:36;8.63;;;4.00;;
4222;SDS011;2125;51.436;14.138;2022-10-31T07:36:02;13.10;;;5.17;;
4222;SDS011;2125;51.436;14.138;2022-10-31T07:38:30;7.80;;;4.70;;
4222;SDS011;2125;51.436;14.138;2022-10-31T07:40:56;10.20;;;4.67;;
4222;SDS011;2125;51.436;14.138;2022-10-31T07:43:24;9.50;;;4.90;;
4222;SDS011;2125;51.436;14.138;2022-10-31T07:45:51;7.30;;;4.50;;
4222;SDS011;2125;51.436;14.138;2022-10-31T07:48:19;13.90;;;5.60;;
4222;SDS011;2125;51.436;14.138;2022-10-31T07:50:46;10.43;;;5.10;;
4222;SDS011;2125;51.436;14.138;2022-10-31T07:53:13;12.03;;;5.20;;
4222;SDS011;2125;51.436;14.138;2022-10-31T07:55:40;11.53;;;5.10;;
4222;SDS011;2125;51.436;14.138;2022-10-31T07:58:08;10.87;;;5.20;;
4222;SDS011;2125;51.436;14.138;2022-10-31T08:00:39;12.60;;;6.10;;
4222;SDS011;2125;51.436;14.138;2022-10-31T08:03:07;9.57;;;4.70;;
4222;SDS011;2125;51.436;14.138;2022-10-31T08:05:35;18.57;;;5.40;;
4222;SDS011;2125;51.436;14.138;2022-10-31T08:08:02;12.60;;;5.23;;
4222;SDS011;2125;51.436;14.138;2022-10-31T08:10:29;11.90;;;5.20;;
4222;SDS011;2125;51.436;14.138;2022-10-31T08:12:56;13.00;;;5.47;;
4222;SDS011;2125;51.436;14.138;2022-10-31T08:15:23;12.37;;;6.10;;
4222;SDS011;2125;51.436;14.138;2022-10-31T08:17:52;16.03;;;5.77;;
4222;SDS011;2125;51.436;14.138;2022-10-31T08:20:19;18.67;;;5.80;;
4222;SDS011;2125;51.436;14.138;2022-10-31T08:22:52;9.37;;;5.10;;
4222;SDS011;2125;51.436;14.138;2022-10-31T08:25:20;12.53;;;5.50;;
4222;SDS011;2125;51.436;14.138;2022-10-31T08:27:48;11.27;;;5.40;;
4222;SDS011;2125;51.436;14.138;2022-10-31T08:30:15;11.47;;;5.27;;
4222;SDS011;2125;51.436;14.138;2022-10-31T08:32:42;9.10;;;5.17;;
4222;SDS011;2125;51.436;14.138;2022-10-31T08:35:10;8.93;;;5.43;;
4222;SDS011;2125;51.436;14.138;2022-10-31T08:37:37;9.57;;;5.00;;
4222;SDS011;2125;51.436;14.138;2022-10-31T08:40:04;11.00;;;5.53;;
4222;SDS011;2125;51.436;14.138;2022-10-31T08:42:31;10.87;;;5.03;;
4222;SDS011;2125;51.436;14.138;2022-10-31T08:44:58;13.57;;;5.33;;
4222;SDS011;2125;51.436;14.138;2022-10-31T08:47:24;7.80;;;4.73;;
4222;SDS011;2125;51.436;14.138;2022-10-31T08:49:52;10.90;;;4.30;;
4222;SDS011;2125;51.436;14.138;2022-10-31T08:52:23;13.90;;;5.50;;
4222;SDS011;2125;51.436;14.138;2022-10-31T08:54:51;9.97;;;5.00;;
4222;SDS011;2125;51.436;14.138;2022-10-31T08:57:17;10.20;;;5.07;;
4222;SDS011;2125;51.436;14.138;2022-10-31T08:59:44;10.07;;;4.70;;
4222;SDS011;2125;51.436;14.138;2022-10-31T09:02:10;9.47;;;4.50;;
4222;SDS011;2125;51.436;14.138;2022-10-31T09:04:37;10.30;;;5.03;;
4222;SDS011;2125;51.436;14.138;2022-10-31T09:07:04;11.10;;;5.33;;
4222;SDS011;2125;51.436;14.138;2022-10-31T09:09:32;18.37;;;6.13;;
4222;SDS011;2125;51.436;14.138;2022-10-31T09:11:59;17.23;;;5.83;;
4222;SDS011;2125;51.436;14.138;2022-10-31T09:14:27;9.70;;;4.63;;
4222;SDS011;2125;51.436;14.138;2022-10-31T09:16:54;12.03;;;5.20;;
4222;SDS011;2125;51.436;14.138;2022-10-31T09:19:20;11.67;;;5.07;;
4222;SDS011;2125;51.436;14.138;2022-10-31T09:21:47;12.30;;;5.80;;
4222;SDS011;2125;51.436;14.138;2022-10-31T09:24:17;9.57;;;5.10;;
4222;SDS011;2125;51.436;14.138;2022-10-31T09:26:45;15.50;;;5.03;;
4222;SDS011;2125;51.436;14.138;2022-10-31T09:29:12;10.83;;;5.17;;
4222;SDS011;2125;51.436;14.138;2022-10-31T09:31:38;14.57;;;5.97;;
4222;SDS011;2125;51.436;14.138;2022-10-31T09:34:05;11.67;;;6.00;;
4222;SDS011;2125;51.436;14.138;2022-10-31T09:36:32;14.17;;;5.77;;
4222;SDS011;2125;51.436;14.138;2022-10-31T09:38:58;11.13;;;5.33;;
4222;SDS011;2125;51.436;14.138;2022-10-31T09:41:27;14.00;;;5.97;;
4222;SDS011;2125;51.436;14.138;2022-10-31T09:44:02;11.00;;;5.60;;
4222;SDS011;2125;51.436;14.138;2022-10-31T09:46:39;12.30;;;6.53;;
4222;SDS011;2125;51.436;14.138;2022-10-31T09:49:31;16.33;;;6.90;;
4222;SDS011;2125;51.436;14.138;2022-10-31T09:52:17;16.07;;;5.93;;
4222;SDS011;2125;51.436;14.138;2022-10-31T09:54:49;12.33;;;6.00;;
4222;SDS011;2125;51.436;14.138;2022-10-31T09:57:22;13.00;;;6.00;;
4222;SDS011;2125;51.436;14.138;2022-10-31T09:59:54;12.33;;;6.07;;
4222;SDS011;2125;51.436;14.138;2022-10-31T10:02:23;14.50;;;6.33;;
4222;SDS011;2125;51.436;14.138;2022-10-31T10:04:56;11.43;;;5.50;;
4222;SDS011;2125;51.436;14.138;2022-10-31T10:07:30;21.30;;;7.30;;
4222;SDS011;2125;51.436;14.138;2022-10-31T10:10:12;13.67;;;6.13;;
4222;SDS011;2125;51.436;14.138;2022-10-31T10:12:48;22.23;;;7.90;;
4222;SDS011;2125;51.436;14.138;2022-10-31T10:15:42;15.23;;;6.97;;
4222;SDS011;2125;51.436;14.138;2022-10-31T10:18:23;16.93;;;6.50;;
4222;SDS011;2125;51.436;14.138;2022-10-31T10:21:02;16.30;;;6.20;;
4222;SDS011;2125;51.436;14.138;2022-10-31T10:23:39;12.33;;;5.83;;
4222;SDS011;2125;51.436;14.138;2022-10-31T10:26:16;19.23;;;7.13;;
4222;SDS011;2125;51.436;14.138;2022-10-31T10:28:44;15.73;;;6.00;;
4222;SDS011;2125;51.436;14.138;2022-10-31T10:31:18;10.97;;;5.33;;
4222;SDS011;2125;51.436;14.138;2022-10-31T10:33:51;10.97;;;5.77;;
4222;SDS011;2125;51.436;14.138;2022-10-31T10:36:26;12.90;;;6.50;;
4222;SDS011;2125;51.436;14.138;2022-10-31T10:38:57;14.90;;;6.60;;
4222;SDS011;2125;51.436;14.138;2022-10-31T10:41:27;12.33;;;5.77;;
4222;SDS011;2125;51.436;14.138;2022-10-31T10:43:57;16.80;;;7.23;;
4222;SDS011;2125;51.436;14.138;2022-10-31T10:46:26;15.60;;;6.20;;
4222;SDS011;2125;51.436;14.138;2022-10-31T10:49:17;11.13;;;5.83;;
4222;SDS011;2125;51.436;14.138;2022-10-31T10:51:46;16.63;;;6.23;;
4222;SDS011;2125;51.436;14.138;2022-10-31T10:54:20;15.93;;;6.53;;
4222;SDS011;2125;51.436;14.138;2022-10-31T10:57:11;13.03;;;5.70;;
4222;SDS011;2125;51.436;14.138;2022-10-31T10:59:48;19.97;;;6.43;;
4222;SDS011;2125;51.436;14.138;2022-10-31T11:02:17;20.37;;;5.57;;
4222;SDS011;2125;51.436;14.138;2022-10-31T11:04:45;16.63;;;6.10;;
4222;SDS011;2125;51.436;14.138;2022-10-31T11:07:15;11.80;;;5.77;;
4222;SDS011;2125;51.436;14.138;2022-10-31T11:09:42;12.80;;;6.03;;
4222;SDS011;2125;51.436;14.138;2022-10-31T11:12:09;10.93;;;6.23;;
4222;SDS011;2125;51.436;14.138;2022-10-31T11:14:45;12.27;;;5.67;;
4222;SDS011;2125;51.436;14.138;2022-10-31T11:17:27;21.10;;;6.30;;
4222;SDS011;2125;51.436;14.138;2022-10-31T11:20:04;13.20;;;6.43;;
4222;SDS011;2125;51.436;14.138;2022-10-31T11:22:32;13.97;;;6.00;;
4222;SDS011;2125;51.436;14.138;2022-10-31T11:24:59;19.90;;;6.50;;
4222;SDS011;2125;51.436;14.138;2022-10-31T11:27:25;14.43;;;7.10;;
4222;SDS011;2125;51.436;14.138;2022-10-31T11:29:52;13.97;;;6.13;;
4222;SDS011;2125;51.436;14.138;2022-10-31T11:32:31;19.23;;;6.90;;
4222;SDS011;2125;51.436;14.138;2022-10-31T11:34:59;10.80;;;5.77;;
4222;SDS011;2125;51.436;14.138;2022-10-31T11:37:29;13.30;;;5.90;;
4222;SDS011;2125;51.436;14.138;2022-10-31T11:40:00;13.30;;;5.60;;
4222;SDS011;2125;51.436;14.138;2022-10-31T11:42:34;14.33;;;5.63;;
4222;SDS011;2125;51.436;14.138;2022-10-31T11:45:05;13.97;;;6.37;;
4222;SDS011;2125;51.436;14.138;2022-10-31T11:47:41;11.97;;;5.90;;
4222;SDS011;2125;51.436;14.138;2022-10-31T11:50:15;17.97;;;5.53;;
4222;SDS011;2125;51.436;14.138;2022-10-31T11:52:46;15.27;;;5.60;;
4222;SDS011;2125;51.436;14.138;2022-10-31T11:55:15;12.87;;;6.00;;
4222;SDS011;2125;51.436;14.138;2022-10-31T11:57:44;13.03;;;6.37;;
4222;SDS011;2125;51.436;14.138;2022-10-31T12:00:20;13.53;;;6.50;;
4222;SDS011;2125;51.436;14.138;2022-10-31T12:02:50;14.20;;;6.20;;
4222;SDS011;2125;51.436;14.138;2022-10-31T12:05:18;10.80;;;6.00;;
4222;SDS011;2125;51.436;14.138;2022-10-31T12:07:47;12.63;;;5.93;;
4222;SDS011;2125;51.436;14.138;2022-10-31T12:10:14;18.23;;;5.83;;
4222;SDS011;2125;51.436;14.138;2022-10-31T12:12:54;10.43;;;5.50;;
4222;SDS011;2125;51.436;14.138;2022-10-31T12:15:29;16.70;;;6.33;;
4222;SDS011;2125;51.436;14.138;2022-10-31T12:20:58;15.30;;;5.97;;
4222;SDS011;2125;51.436;14.138;2022-10-31T12:23:50;14.10;;;6.40;;
4222;SDS011;2125;51.436;14.138;2022-10-31T12:26:26;14.40;;;6.17;;
4222;SDS011;2125;51.436;14.138;2022-10-31T12:29:03;13.33;;;6.10;;
4222;SDS011;2125;51.436;14.138;2022-10-31T12:31:45;13.80;;;6.00;;
4222;SDS011;2125;51.436;14.138;2022-10-31T12:34:26;13.50;;;5.97;;
4222;SDS011;2125;51.436;14.138;2022-10-31T12:37:20;12.00;;;5.43;;
4222;SDS011;2125;51.436;14.138;2022-10-31T12:39:58;13.03;;;5.93;;
4222;SDS011;2125;51.436;14.138;2022-10-31T12:42:38;11.27;;;5.50;;
4222;SDS011;2125;51.436;14.138;2022-10-31T12:45:25;10.80;;;4.90;;
4222;SDS011;2125;51.436;14.138;2022-10-31T12:48:10;13.57;;;6.00;;
4222;SDS011;2125;51.436;14.138;2022-10-31T12:50:54;10.37;;;5.20;;
4222;SDS011;2125;51.436;14.138;2022-10-31T12:53:32;11.23;;;5.37;;
4222;SDS011;2125;51.436;14.138;2022-10-31T12:56:15;16.07;;;6.27;;
4222;SDS011;2125;51.436;14.138;2022-10-31T12:58:54;17.50;;;5.37;;
4222;SDS011;2125;51.436;14.138;2022-10-31T13:01:27;14.37;;;5.77;;
4222;SDS011;2125;51.436;14.138;2022-10-31T13:04:01;12.10;;;5.40;;
4222;SDS011;2125;51.436;14.138;2022-10-31T13:06:34;13.13;;;6.00;;
4222;SDS011;2125;51.436;14.138;2022-10-31T13:09:05;14.67;;;5.60;;
4222;SDS011;2125;51.436;14.138;2022-10-31T13:11:35;10.23;;;5.23;;
4222;SDS011;2125;51.436;14.138;2022-10-31T13:14:07;11.07;;;6.30;;
4222;SDS011;2125;51.436;14.138;2022-10-31T13:16:38;13.57;;;5.83;;
4222;SDS011;2125;51.436;14.138;2022-10-31T13:19:08;12.57;;;5.57;;
4222;SDS011;2125;51.436;14.138;2022-10-31T13:21:45;14.20;;;5.70;;
4222;SDS011;2125;51.436;14.138;2022-10-31T13:24:21;10.77;;;5.53;;
4222;SDS011;2125;51.436;14.138;2022-10-31T13:26:52;15.90;;;5.57;;
4222;SDS011;2125;51.436;14.138;2022-10-31T13:29:23;13.77;;;5.87;;
4222;SDS011;2125;51.436;14.138;2022-10-31T13:31:53;13.80;;;6.33;;
4222;SDS011;2125;51.436;14.138;2022-10-31T13:34:25;13.30;;;6.00;;
4222;SDS011;2125;51.436;14.138;2022-10-31T13:36:58;13.57;;;5.17;;
4222;SDS011;2125;51.436;14.138;2022-10-31T13:39:32;12.90;;;5.20;;
4222;SDS011;2125;51.436;14.138;2022-10-31T13:42:14;10.40;;;5.77;;
4222;SDS011;2125;51.436;14.138;2022-10-31T13:44:46;11.50;;;5.60;;
4222;SDS011;2125;51.436;14.138;2022-10-31T13:47:23;14.30;;;6.20;;
4222;SDS011;2125;51.436;14.138;2022-10-31T13:49:51;12.27;;;6.20;;
4222;SDS011;2125;51.436;14.138;2022-10-31T13:52:31;13.40;;;6.07;;
4222;SDS011;2125;51.436;14.138;2022-10-31T13:54:57;11.63;;;5.63;;
4222;SDS011;2125;51.436;14.138;2022-10-31T13:57:27;13.80;;;5.73;;
4222;SDS011;2125;51.436;14.138;2022-10-31T13:59:58;15.40;;;6.40;;
4222;SDS011;2125;51.436;14.138;2022-10-31T14:02:28;10.93;;;6.03;;
4222;SDS011;2125;51.436;14.138;2022-10-31T14:04:58;22.77;;;5.90;;
4222;SDS011;2125;51.436;14.138;2022-10-31T14:07:27;22.17;;;6.30;;
4222;SDS011;2125;51.436;14.138;2022-10-31T14:09:58;14.10;;;5.83;;
4222;SDS011;2125;51.436;14.138;2022-10-31T14:12:29;15.37;;;6.00;;
4222;SDS011;2125;51.436;14.138;2022-10-31T14:15:02;13.20;;;6.60;;
4222;SDS011;2125;51.436;14.138;2022-10-31T14:17:33;12.33;;;6.40;;
4222;SDS011;2125;51.436;14.138;2022-10-31T14:23:12;11.60;;;5.87;;
4222;SDS011;2125;51.436;14.138;2022-10-31T14:26:06;11.30;;;5.97;;
4222;SDS011;2125;51.436;14.138;2022-10-31T14:28:44;13.47;;;5.77;;
4222;SDS011;2125;51.436;14.138;2022-10-31T14:31:24;12.17;;;6.20;;
4222;SDS011;2125;51.436;14.138;2022-10-31T14:34:00;13.97;;;6.10;;
4222;SDS011;2125;51.436;14.138;2022-10-31T14:36:31;22.07;;;8.70;;
4222;SDS011;2125;51.436;14.138;2022-10-31T14:39:07;13.80;;;6.90;;
4222;SDS011;2125;51.436;14.138;2022-10-31T14:41:47;18.27;;;7.67;;
4222;SDS011;2125;51.436;14.138;2022-10-31T14:44:29;13.30;;;6.70;;
4222;SDS011;2125;51.436;14.138;2022-10-31T14:47:21;18.47;;;7.53;;
4222;SDS011;2125;51.436;14.138;2022-10-31T14:50:07;12.63;;;7.20;;
4222;SDS011;2125;51.436;14.138;2022-10-31T14:52:48;16.87;;;7.80;;
4222;SDS011;2125;51.436;14.138;2022-10-31T14:55:19;17.60;;;7.10;;
4222;SDS011;2125;51.436;14.138;2022-10-31T14:57:49;11.73;;;6.30;;
4222;SDS011;2125;51.436;14.138;2022-10-31T15:00:20;14.83;;;5.90;;
4222;SDS011;2125;51.436;14.138;2022-10-31T15:02:50;13.57;;;5.50;;
4222;SDS011;2125;51.436;14.138;2022-10-31T15:05:23;13.33;;;6.30;;
4222;SDS011;2125;51.436;14.138;2022-10-31T15:07:53;14.80;;;7.80;;
4222;SDS011;2125;51.436;14.138;2022-10-31T15:10:21;15.07;;;8.47;;
4222;SDS011;2125;51.436;14.138;2022-10-31T15:12:51;15.43;;;7.40;;
4222;SDS011;2125;51.436;14.138;2022-10-31T15:15:22;14.77;;;6.87;;
4222;SDS011;2125;51.436;14.138;2022-10-31T15:17:53;20.60;;;6.27;;
4222;SDS011;2125;51.436;14.138;2022-10-31T15:20:24;19.00;;;8.00;;
4222;SDS011;2125;51.436;14.138;2022-10-31T15:22:53;24.23;;;9.90;;
4222;SDS011;2125;51.436;14.138;2022-10-31T15:25:23;16.80;;;7.67;;